createdAt,value
2023-05-10T00:00:07.639Z,539.00
2023-05-10T00:01:07.613Z,540.00
2023-05-10T00:02:07.719Z,538.00
2023-05-10T00:03:08.026Z,537.00
2023-05-10T00:04:07.750Z,535.00
2023-05-10T00:05:07.673Z,533.00
2023-05-10T00:06:07.701Z,534.00
2023-05-10T00:07:07.722Z,534.00
2023-05-10T00:08:07.741Z,533.00
2023-05-10T00:09:07.772Z,531.00
2023-05-10T00:10:07.801Z,533.00
2023-05-10T00:11:07.776Z,532.00
2023-05-10T00:12:07.814Z,530.00
2023-05-10T00:13:07.883Z,531.00
2023-05-10T00:14:07.853Z,531.00
2023-05-10T00:15:07.853Z,531.00
2023-05-10T00:16:08.019Z,531.00
2023-05-10T00:17:07.887Z,532.00
2023-05-10T00:18:07.982Z,532.00
2023-05-10T00:19:07.941Z,529.00
2023-05-10T00:20:07.960Z,528.00
2023-05-10T00:21:07.971Z,527.00
2023-05-10T00:22:08.005Z,529.00
2023-05-10T00:23:08.485Z,528.00
2023-05-10T00:24:08.048Z,527.00
2023-05-10T00:25:08.072Z,527.00
2023-05-10T00:26:08.066Z,529.00
2023-05-10T00:27:08.142Z,528.00
2023-05-10T00:28:08.147Z,526.00
2023-05-10T00:29:08.136Z,527.00
2023-05-10T00:30:08.193Z,527.00
2023-05-10T00:31:08.153Z,526.00
2023-05-10T00:32:08.265Z,526.00
2023-05-10T00:33:08.493Z,527.00
2023-05-10T00:34:08.228Z,529.00
2023-05-10T00:35:08.261Z,528.00
2023-05-10T00:36:08.270Z,529.00
2023-05-10T00:37:08.332Z,528.00
2023-05-10T00:38:08.494Z,527.00
2023-05-10T00:39:08.328Z,525.00
2023-05-10T00:40:08.349Z,521.00
2023-05-10T00:41:08.401Z,521.00
2023-05-10T00:42:08.402Z,521.00
2023-05-10T00:43:08.422Z,521.00
2023-05-10T00:44:08.498Z,520.00
2023-05-10T00:45:08.455Z,520.00
2023-05-10T00:46:08.563Z,522.00
2023-05-10T00:47:08.495Z,522.00
2023-05-10T00:48:08.615Z,521.00
2023-05-10T00:49:08.568Z,522.00
2023-05-10T00:50:08.570Z,521.00
2023-05-10T00:51:08.551Z,519.00
2023-05-10T00:52:08.755Z,517.00
2023-05-10T00:53:08.609Z,517.00
2023-05-10T00:54:08.627Z,517.00
2023-05-10T00:55:08.753Z,519.00
2023-05-10T00:56:08.650Z,518.00
2023-05-10T00:57:08.708Z,518.00
2023-05-10T00:58:08.727Z,518.00
2023-05-10T00:59:09.046Z,518.00
2023-05-10T01:00:08.826Z,517.00
2023-05-10T01:01:08.762Z,517.00
2023-05-10T01:02:08.802Z,518.00
2023-05-10T01:03:09.028Z,520.00
2023-05-10T01:04:09.018Z,521.00
2023-05-10T01:05:08.929Z,522.00
2023-05-10T01:06:08.900Z,522.00
2023-05-10T01:07:08.946Z,525.00
2023-05-10T01:08:08.940Z,526.00
2023-05-10T01:09:09.023Z,528.00
2023-05-10T01:10:08.983Z,529.00
2023-05-10T01:11:09.038Z,525.00
2023-05-10T01:12:09.081Z,525.00
2023-05-10T01:13:09.096Z,525.00
2023-05-10T01:14:09.512Z,523.00
2023-05-10T01:15:09.105Z,522.00
2023-05-10T01:16:09.233Z,520.00
2023-05-10T01:17:09.130Z,523.00
2023-05-10T01:18:09.199Z,521.00
2023-05-10T01:19:09.519Z,519.00
2023-05-10T01:20:09.218Z,519.00
2023-05-10T01:21:09.235Z,519.00
2023-05-10T01:22:09.283Z,516.00
2023-05-10T01:23:09.265Z,517.00
2023-05-10T01:24:09.536Z,517.00
2023-05-10T01:25:09.301Z,517.00
2023-05-10T01:26:09.335Z,517.00
2023-05-10T01:27:09.392Z,515.00
2023-05-10T01:28:09.399Z,515.00
2023-05-10T01:29:09.563Z,517.00
2023-05-10T01:30:14.704Z,518.00
2023-05-10T01:31:10.462Z,518.00
2023-05-10T01:32:09.447Z,516.00
2023-05-10T01:33:09.540Z,514.00
2023-05-10T01:34:09.537Z,512.00
2023-05-10T01:35:09.369Z,512.00
2023-05-10T01:36:09.422Z,516.00
2023-05-10T01:37:09.378Z,517.00
2023-05-10T01:38:09.395Z,516.00
2023-05-10T01:39:09.494Z,514.00
2023-05-10T01:40:09.372Z,513.00
2023-05-10T01:41:09.368Z,514.00
2023-05-10T01:42:09.363Z,513.00
2023-05-10T01:43:09.303Z,513.00
2023-05-10T01:44:09.531Z,512.00
2023-05-10T01:45:09.312Z,512.00
2023-05-10T01:46:09.329Z,510.00
2023-05-10T01:47:09.287Z,509.00
2023-05-10T01:48:09.359Z,508.00
2023-05-10T01:49:09.383Z,505.00
2023-05-10T01:50:09.386Z,505.00
2023-05-10T01:51:09.429Z,505.00
2023-05-10T01:52:09.465Z,505.00
2023-05-10T01:53:09.471Z,508.00
2023-05-10T01:54:09.548Z,508.00
2023-05-10T01:55:09.528Z,507.00
2023-05-10T01:56:09.592Z,507.00
2023-05-10T01:57:09.667Z,508.00
2023-05-10T01:58:09.665Z,507.00
2023-05-10T01:59:09.685Z,505.00
2023-05-10T02:00:09.737Z,506.00
2023-05-10T02:01:09.789Z,506.00
2023-05-10T02:02:09.775Z,505.00
2023-05-10T02:03:09.883Z,505.00
2023-05-10T02:04:10.125Z,507.00
2023-05-10T02:05:09.880Z,506.00
2023-05-10T02:06:09.884Z,506.00
2023-05-10T02:07:09.957Z,503.00
2023-05-10T02:08:09.918Z,503.00
2023-05-10T02:09:09.969Z,501.00
2023-05-10T02:10:10.008Z,502.00
2023-05-10T02:11:10.057Z,501.00
2023-05-10T02:12:10.051Z,501.00
2023-05-10T02:13:10.110Z,502.00
2023-05-10T02:14:10.142Z,504.00
2023-05-10T02:15:10.151Z,506.00
2023-05-10T02:16:10.243Z,506.00
2023-05-10T02:17:10.373Z,505.00
2023-05-10T02:18:10.562Z,506.00
2023-05-10T02:19:10.523Z,506.00
2023-05-10T02:20:10.248Z,505.00
2023-05-10T02:21:10.295Z,505.00
2023-05-10T02:22:10.303Z,505.00
2023-05-10T02:23:10.364Z,508.00
2023-05-10T02:24:10.543Z,508.00
2023-05-10T02:25:10.396Z,508.00
2023-05-10T02:26:10.431Z,506.00
2023-05-10T02:27:10.464Z,506.00
2023-05-10T02:28:10.481Z,506.00
2023-05-10T02:29:10.512Z,505.00
2023-05-10T02:30:10.570Z,503.00
2023-05-10T02:31:10.608Z,502.00
2023-05-10T02:32:10.797Z,503.00
2023-05-10T02:33:10.645Z,503.00
2023-05-10T02:34:10.680Z,504.00
2023-05-10T02:35:10.725Z,505.00
2023-05-10T02:36:10.760Z,508.00
2023-05-10T02:37:10.849Z,508.00
2023-05-10T02:38:10.851Z,506.00
2023-05-10T02:39:10.856Z,506.00
2023-05-10T02:40:10.864Z,504.00
2023-05-10T02:41:10.912Z,504.00
2023-05-10T02:42:10.983Z,504.00
2023-05-10T02:43:10.988Z,502.00
2023-05-10T02:44:11.041Z,502.00
2023-05-10T02:45:11.032Z,501.00
2023-05-10T02:46:11.156Z,501.00
2023-05-10T02:47:11.108Z,500.00
2023-05-10T02:48:11.181Z,500.00
2023-05-10T02:49:11.238Z,500.00
2023-05-10T02:50:11.222Z,502.00
2023-05-10T02:51:11.252Z,503.00
2023-05-10T02:52:11.616Z,504.00
2023-05-10T02:53:11.745Z,504.00
2023-05-10T02:54:11.344Z,504.00
2023-05-10T02:55:11.331Z,501.00
2023-05-10T02:56:11.369Z,499.00
2023-05-10T02:57:11.358Z,499.00
2023-05-10T02:58:11.418Z,500.00
2023-05-10T02:59:11.446Z,502.00
2023-05-10T03:00:11.459Z,499.00
2023-05-10T03:01:11.553Z,499.00
2023-05-10T03:02:11.530Z,498.00
2023-05-10T03:03:11.531Z,495.00
2023-05-10T03:04:11.605Z,495.00
2023-05-10T03:05:11.623Z,496.00
2023-05-10T03:06:11.615Z,497.00
2023-05-10T03:07:11.714Z,498.00
2023-05-10T03:08:11.695Z,496.00
2023-05-10T03:09:11.762Z,494.00
2023-05-10T03:10:11.795Z,493.00
2023-05-10T03:11:11.770Z,495.00
2023-05-10T03:12:11.856Z,496.00
2023-05-10T03:13:11.918Z,495.00
2023-05-10T03:14:11.916Z,496.00
2023-05-10T03:15:11.902Z,493.00
2023-05-10T03:16:12.057Z,491.00
2023-05-10T03:17:11.979Z,492.00
2023-05-10T03:18:12.026Z,492.00
2023-05-10T03:19:12.032Z,492.00
2023-05-10T03:20:12.098Z,488.00
2023-05-10T03:21:12.105Z,488.00
2023-05-10T03:22:12.138Z,491.00
2023-05-10T03:23:12.155Z,492.00
2023-05-10T03:24:12.194Z,493.00
2023-05-10T03:25:12.243Z,494.00
2023-05-10T03:26:12.290Z,493.00
2023-05-10T03:27:12.320Z,492.00
2023-05-10T03:28:12.351Z,494.00
2023-05-10T03:29:12.363Z,496.00
2023-05-10T03:30:12.366Z,495.00
2023-05-10T03:31:12.462Z,494.00
2023-05-10T03:32:12.449Z,491.00
2023-05-10T03:33:12.503Z,490.00
2023-05-10T03:34:12.539Z,488.00
2023-05-10T03:35:12.592Z,489.00
2023-05-10T03:36:12.630Z,487.00
2023-05-10T03:37:12.657Z,487.00
2023-05-10T03:38:12.702Z,487.00
2023-05-10T03:39:13.099Z,486.00
2023-05-10T03:40:12.755Z,484.00
2023-05-10T03:41:12.786Z,483.00
2023-05-10T03:42:12.931Z,482.00
2023-05-10T03:43:12.883Z,483.00
2023-05-10T03:44:13.092Z,484.00
2023-05-10T03:45:12.988Z,482.00
2023-05-10T03:46:13.045Z,482.00
2023-05-10T03:47:12.998Z,483.00
2023-05-10T03:48:13.123Z,483.00
2023-05-10T03:49:13.095Z,483.00
2023-05-10T03:50:13.119Z,483.00
2023-05-10T03:51:13.162Z,485.00
2023-05-10T03:52:13.204Z,485.00
2023-05-10T03:53:13.257Z,484.00
2023-05-10T03:54:13.288Z,482.00
2023-05-10T03:55:13.330Z,482.00
2023-05-10T03:56:13.377Z,484.00
2023-05-10T03:57:13.392Z,484.00
2023-05-10T03:58:13.454Z,483.00
2023-05-10T03:59:13.466Z,485.00
2023-05-10T04:00:13.534Z,484.00
2023-05-10T04:01:13.559Z,487.00
2023-05-10T04:02:13.563Z,488.00
2023-05-10T04:03:13.647Z,491.00
2023-05-10T04:04:13.768Z,493.00
2023-05-10T04:05:13.662Z,493.00
2023-05-10T04:06:13.695Z,491.00
2023-05-10T04:07:13.737Z,490.00
2023-05-10T04:08:13.782Z,488.00
2023-05-10T04:09:13.850Z,486.00
2023-05-10T04:10:13.849Z,484.00
2023-05-10T04:11:13.908Z,485.00
2023-05-10T04:12:13.897Z,483.00
2023-05-10T04:13:14.023Z,484.00
2023-05-10T04:14:14.027Z,486.00
2023-05-10T04:15:14.022Z,486.00
2023-05-10T04:16:14.084Z,487.00
2023-05-10T04:17:14.168Z,486.00
2023-05-10T04:18:14.155Z,486.00
2023-05-10T04:19:14.186Z,490.00
2023-05-10T04:20:14.326Z,490.00
2023-05-10T04:21:14.240Z,491.00
2023-05-10T04:22:14.269Z,492.00
2023-05-10T04:23:14.306Z,490.00
2023-05-10T04:24:14.362Z,488.00
2023-05-10T04:25:14.420Z,487.00
2023-05-10T04:26:14.464Z,484.00
2023-05-10T04:27:14.485Z,486.00
2023-05-10T04:28:14.523Z,486.00
2023-05-10T04:29:14.603Z,486.00
2023-05-10T04:30:14.790Z,486.00
2023-05-10T04:31:14.703Z,486.00
2023-05-10T04:32:14.674Z,488.00
2023-05-10T04:33:14.740Z,487.00
2023-05-10T04:34:14.773Z,487.00
2023-05-10T04:35:14.847Z,485.00
2023-05-10T04:36:14.867Z,485.00
2023-05-10T04:37:14.894Z,487.00
2023-05-10T04:38:14.958Z,487.00
2023-05-10T04:39:15.015Z,487.00
2023-05-10T04:40:15.302Z,485.00
2023-05-10T04:41:15.073Z,486.00
2023-05-10T04:42:15.202Z,486.00
2023-05-10T04:43:15.174Z,488.00
2023-05-10T04:44:15.211Z,488.00
2023-05-10T04:45:15.296Z,486.00
2023-05-10T04:46:15.277Z,486.00
2023-05-10T04:47:15.322Z,487.00
2023-05-10T04:48:15.372Z,487.00
2023-05-10T04:49:15.588Z,485.00
2023-05-10T04:50:15.633Z,484.00
2023-05-10T04:51:15.461Z,484.00
2023-05-10T04:52:15.516Z,484.00
2023-05-10T04:53:16.035Z,483.00
2023-05-10T04:54:15.579Z,483.00
2023-05-10T04:55:15.587Z,483.00
2023-05-10T04:56:15.630Z,483.00
2023-05-10T04:57:15.700Z,483.00
2023-05-10T04:58:15.732Z,484.00
2023-05-10T04:59:15.791Z,483.00
2023-05-10T05:00:15.896Z,485.00
2023-05-10T05:01:15.861Z,482.00
2023-05-10T05:02:15.868Z,479.00
2023-05-10T05:03:16.032Z,478.00
2023-05-10T05:04:16.136Z,476.00
2023-05-10T05:05:16.004Z,476.00
2023-05-10T05:06:16.007Z,478.00
2023-05-10T05:07:16.088Z,478.00
2023-05-10T05:08:16.123Z,480.00
2023-05-10T05:09:16.122Z,484.00
2023-05-10T05:10:16.471Z,486.00
2023-05-10T05:11:16.227Z,488.00
2023-05-10T05:12:16.244Z,494.00
2023-05-10T05:13:16.311Z,501.00
2023-05-10T05:14:16.373Z,502.00
2023-05-10T05:15:16.378Z,506.00
2023-05-10T05:16:16.455Z,505.00
2023-05-10T05:17:16.449Z,503.00
2023-05-10T05:18:16.519Z,500.00
2023-05-10T05:19:16.554Z,499.00
2023-05-10T05:20:16.801Z,497.00
2023-05-10T05:21:16.656Z,495.00
2023-05-10T05:22:18.356Z,498.00
2023-05-10T05:23:16.669Z,498.00
2023-05-10T05:24:17.103Z,497.00
2023-05-10T05:25:16.652Z,495.00
2023-05-10T05:26:16.659Z,497.00
2023-05-10T05:27:16.643Z,496.00
2023-05-10T05:28:16.650Z,496.00
2023-05-10T05:29:16.599Z,496.00
2023-05-10T05:30:16.824Z,496.00
2023-05-10T05:31:16.612Z,497.00
2023-05-10T05:32:16.586Z,498.00
2023-05-10T05:33:16.613Z,496.00
2023-05-10T05:34:16.626Z,496.00
2023-05-10T05:35:16.740Z,495.00
2023-05-10T05:36:16.576Z,497.00
2023-05-10T05:37:16.549Z,498.00
2023-05-10T05:38:16.557Z,496.00
2023-05-10T05:39:16.531Z,494.00
2023-05-10T05:40:16.638Z,495.00
2023-05-10T05:41:16.555Z,495.00
2023-05-10T05:42:16.544Z,495.00
2023-05-10T05:43:16.538Z,495.00
2023-05-10T05:44:16.596Z,494.00
2023-05-10T05:45:16.733Z,496.00
2023-05-10T05:46:16.558Z,497.00
2023-05-10T05:47:16.525Z,504.00
2023-05-10T05:48:16.535Z,525.00
2023-05-10T05:49:16.772Z,536.00
2023-05-10T05:50:16.485Z,574.00
2023-05-10T05:51:16.484Z,574.00
2023-05-10T05:52:16.466Z,571.00
2023-05-10T05:53:16.477Z,568.00
2023-05-10T05:54:16.465Z,568.00
2023-05-10T05:55:16.864Z,569.00
2023-05-10T05:56:16.462Z,571.00
2023-05-10T05:57:16.431Z,574.00
2023-05-10T05:58:16.388Z,579.00
2023-05-10T05:59:16.391Z,580.00
2023-05-10T06:00:16.512Z,582.00
2023-05-10T06:01:16.562Z,584.00
2023-05-10T06:02:16.578Z,585.00
2023-05-10T06:03:16.526Z,586.00
2023-05-10T06:04:16.624Z,585.00
2023-05-10T06:05:16.576Z,585.00
2023-05-10T06:06:16.348Z,586.00
2023-05-10T06:07:16.430Z,589.00
2023-05-10T06:08:16.339Z,589.00
2023-05-10T06:09:16.336Z,590.00
2023-05-10T06:10:16.340Z,590.00
2023-05-10T06:11:16.391Z,590.00
2023-05-10T06:12:16.322Z,590.00
2023-05-10T06:13:16.456Z,587.00
2023-05-10T06:14:16.417Z,586.00
2023-05-10T06:15:16.572Z,585.00
2023-05-10T06:16:16.460Z,584.00
2023-05-10T06:17:16.478Z,583.00
2023-05-10T06:18:16.532Z,581.00
2023-05-10T06:19:16.617Z,579.00
2023-05-10T06:20:16.560Z,583.00
2023-05-10T06:21:16.712Z,585.00
2023-05-10T06:22:16.606Z,586.00
2023-05-10T06:23:16.633Z,584.00
2023-05-10T06:24:17.142Z,586.00
2023-05-10T06:25:16.880Z,587.00
2023-05-10T06:26:16.726Z,587.00
2023-05-10T06:27:16.775Z,586.00
2023-05-10T06:28:16.773Z,586.00
2023-05-10T06:29:16.822Z,583.00
2023-05-10T06:30:16.858Z,582.00
2023-05-10T06:31:16.866Z,581.00
2023-05-10T06:32:16.875Z,581.00
2023-05-10T06:33:16.920Z,579.00
2023-05-10T06:34:16.999Z,580.00
2023-05-10T06:35:17.507Z,577.00
2023-05-10T06:36:17.059Z,576.00
2023-05-10T06:37:17.068Z,574.00
2023-05-10T06:38:17.123Z,572.00
2023-05-10T06:39:17.119Z,573.00
2023-05-10T06:40:17.178Z,574.00
2023-05-10T06:41:17.172Z,575.00
2023-05-10T06:42:17.212Z,575.00
2023-05-10T06:43:17.259Z,574.00
2023-05-10T06:44:17.323Z,570.00
2023-05-10T06:45:17.732Z,571.00
2023-05-10T06:46:17.417Z,570.00
2023-05-10T06:47:17.403Z,570.00
2023-05-10T06:48:17.519Z,568.00
2023-05-10T06:49:17.417Z,566.00
2023-05-10T06:50:17.543Z,564.00
2023-05-10T06:51:17.514Z,561.00
2023-05-10T06:52:17.552Z,558.00
2023-05-10T06:53:17.575Z,554.00
2023-05-10T06:54:17.607Z,554.00
2023-05-10T06:55:18.378Z,561.00
2023-05-10T06:56:17.714Z,563.00
2023-05-10T06:57:30.422Z,577.00
2023-05-10T06:58:18.712Z,638.00
2023-05-10T06:59:17.739Z,657.00
2023-05-10T07:00:18.009Z,740.00
2023-05-10T07:01:17.817Z,752.00
2023-05-10T07:02:17.777Z,765.00
2023-05-10T07:03:17.761Z,782.00
2023-05-10T07:04:17.730Z,831.00
2023-05-10T07:05:18.907Z,850.00
2023-05-10T07:06:29.356Z,862.00
2023-05-10T07:07:18.646Z,875.00
2023-05-10T07:08:17.691Z,891.00
2023-05-10T07:09:17.634Z,911.00
2023-05-10T07:10:17.719Z,935.00
2023-05-10T07:11:17.621Z,971.00
2023-05-10T07:12:17.671Z,994.00
2023-05-10T07:13:17.746Z,1010.00
2023-05-10T07:14:17.610Z,1024.00
2023-05-10T07:15:17.930Z,1042.00
2023-05-10T07:16:17.692Z,1062.00
2023-05-10T07:17:17.615Z,1083.00
2023-05-10T07:18:17.666Z,1111.00
2023-05-10T07:19:17.610Z,1131.00
2023-05-10T07:20:17.662Z,1145.00
2023-05-10T07:21:17.623Z,1156.00
2023-05-10T07:22:17.589Z,1166.00
2023-05-10T07:23:17.557Z,1191.00
2023-05-10T07:24:17.649Z,1213.00
2023-05-10T07:25:17.784Z,1228.00
2023-05-10T07:26:17.574Z,1251.00
2023-05-10T07:27:17.665Z,1265.00
2023-05-10T07:28:17.694Z,1285.00
2023-05-10T07:29:17.754Z,1303.00
2023-05-10T07:30:17.840Z,1323.00
2023-05-10T07:31:17.811Z,1348.00
2023-05-10T07:32:17.920Z,1367.00
2023-05-10T07:33:17.994Z,1387.00
2023-05-10T07:34:17.954Z,1405.00
2023-05-10T07:35:18.211Z,1424.00
2023-05-10T07:36:18.092Z,1447.00
2023-05-10T07:37:18.165Z,1464.00
2023-05-10T07:38:18.227Z,1512.00
2023-05-10T07:39:26.535Z,1530.00
2023-05-10T07:40:19.188Z,1549.00
2023-05-10T07:41:18.215Z,1557.00
2023-05-10T07:42:18.183Z,1570.00
2023-05-10T07:43:18.154Z,1589.00
2023-05-10T07:44:18.212Z,1607.00
2023-05-10T07:45:18.977Z,1624.00
2023-05-10T07:46:19.226Z,1642.00
2023-05-10T07:47:18.160Z,921.00
2023-05-10T07:48:18.888Z,758.00
2023-05-10T07:49:18.265Z,571.00
2023-05-10T07:50:18.127Z,613.00
2023-05-10T07:51:18.103Z,653.00
2023-05-10T07:52:18.100Z,635.00
2023-05-10T07:53:18.154Z,572.00
2023-05-10T07:54:18.180Z,545.00
2023-05-10T07:55:18.323Z,596.00
2023-05-10T07:56:18.233Z,616.00
2023-05-10T07:57:18.352Z,638.00
2023-05-10T07:58:18.539Z,636.00
2023-05-10T07:59:18.509Z,652.00
2023-05-10T08:00:18.632Z,748.00
2023-05-10T08:01:18.521Z,761.00
2023-05-10T08:02:18.538Z,779.00
2023-05-10T08:03:18.568Z,826.00
2023-05-10T08:04:18.565Z,841.00
2023-05-10T08:05:18.681Z,860.00
2023-05-10T08:06:18.546Z,883.00
2023-05-10T08:07:18.501Z,901.00
2023-05-10T08:08:18.534Z,921.00
2023-05-10T08:09:18.549Z,945.00
2023-05-10T08:10:18.670Z,979.00
2023-05-10T08:11:18.617Z,997.00
2023-05-10T08:12:18.621Z,1017.00
2023-05-10T08:13:18.670Z,1038.00
2023-05-10T08:14:18.748Z,1056.00
2023-05-10T08:15:18.973Z,1116.00
2023-05-10T08:16:18.953Z,1129.00
2023-05-10T08:17:19.937Z,1146.00
2023-05-10T08:18:21.745Z,1161.00
2023-05-10T08:19:18.932Z,1193.00
2023-05-10T08:20:18.922Z,1214.00
2023-05-10T08:21:18.920Z,1224.00
2023-05-10T08:22:18.902Z,1246.00
2023-05-10T08:23:18.905Z,1261.00
2023-05-10T08:24:18.927Z,1278.00
2023-05-10T08:25:19.100Z,1293.00
2023-05-10T08:26:18.903Z,1314.00
2023-05-10T08:27:18.867Z,1323.00
2023-05-10T08:28:18.872Z,1339.00
2023-05-10T08:29:18.909Z,1355.00
2023-05-10T08:30:19.158Z,1375.00
2023-05-10T08:31:18.851Z,1394.00
2023-05-10T08:32:18.906Z,1410.00
2023-05-10T08:33:18.886Z,1423.00
2023-05-10T08:34:18.851Z,1431.00
2023-05-10T08:35:18.891Z,1479.00
2023-05-10T08:36:18.800Z,1491.00
2023-05-10T08:37:18.865Z,1500.00
2023-05-10T08:38:18.837Z,1510.00
2023-05-10T08:39:27.059Z,1522.00
2023-05-10T08:40:19.823Z,1541.00
2023-05-10T08:41:18.787Z,1552.00
2023-05-10T08:42:18.794Z,1547.00
2023-05-10T08:43:18.802Z,1543.00
2023-05-10T08:44:18.766Z,1398.00
2023-05-10T08:45:19.075Z,1391.00
2023-05-10T08:46:18.748Z,1305.00
2023-05-10T08:47:18.760Z,1166.00
2023-05-10T08:48:18.792Z,731.00
2023-05-10T08:49:18.732Z,819.00
2023-05-10T08:50:19.175Z,936.00
2023-05-10T08:51:18.701Z,990.00
2023-05-10T08:52:18.739Z,1045.00
2023-05-10T08:53:18.727Z,1051.00
2023-05-10T08:54:18.732Z,1078.00
2023-05-10T08:55:19.296Z,1159.00
2023-05-10T08:56:18.716Z,1139.00
2023-05-10T08:57:18.708Z,1049.00
2023-05-10T08:58:18.662Z,992.00
2023-05-10T08:59:18.677Z,974.00
2023-05-10T09:00:19.181Z,971.00
2023-05-10T09:01:18.785Z,966.00
2023-05-10T09:02:18.987Z,932.00
2023-05-10T09:03:18.677Z,917.00
2023-05-10T09:04:18.784Z,915.00
2023-05-10T09:05:19.626Z,902.00
2023-05-10T09:06:18.709Z,885.00
2023-05-10T09:07:18.735Z,874.00
2023-05-10T09:08:18.785Z,872.00
2023-05-10T09:09:18.775Z,858.00
2023-05-10T09:10:19.206Z,845.00
2023-05-10T09:11:18.804Z,831.00
2023-05-10T09:12:18.806Z,822.00
2023-05-10T09:13:18.839Z,813.00
2023-05-10T09:14:18.866Z,803.00
2023-05-10T09:15:19.291Z,796.00
2023-05-10T09:16:21.909Z,788.00
2023-05-10T09:17:18.968Z,779.00
2023-05-10T09:18:18.913Z,775.00
2023-05-10T09:19:18.837Z,770.00
2023-05-10T09:20:18.860Z,765.00
2023-05-10T09:21:18.854Z,757.00
2023-05-10T09:22:18.840Z,753.00
2023-05-10T09:23:18.823Z,745.00
2023-05-10T09:24:18.814Z,742.00
2023-05-10T09:25:19.570Z,737.00
2023-05-10T09:26:18.811Z,734.00
2023-05-10T09:27:18.802Z,730.00
2023-05-10T09:28:18.799Z,723.00
2023-05-10T09:29:18.832Z,714.00
2023-05-10T09:30:19.216Z,708.00
2023-05-10T09:31:18.804Z,702.00
2023-05-10T09:32:18.757Z,695.00
2023-05-10T09:33:18.754Z,689.00
2023-05-10T09:34:19.674Z,681.00
2023-05-10T09:35:18.962Z,675.00
2023-05-10T09:36:18.755Z,668.00
2023-05-10T09:37:18.745Z,663.00
2023-05-10T09:38:18.683Z,660.00
2023-05-10T09:39:18.708Z,657.00
2023-05-10T09:40:19.201Z,653.00
2023-05-10T09:41:18.677Z,650.00
2023-05-10T09:42:18.690Z,646.00
2023-05-10T09:43:19.747Z,641.00
2023-05-10T09:44:18.666Z,638.00
2023-05-10T09:45:18.776Z,632.00
2023-05-10T09:46:18.770Z,626.00
2023-05-10T09:47:18.683Z,624.00
2023-05-10T09:48:18.659Z,620.00
2023-05-10T09:49:18.656Z,616.00
2023-05-10T09:50:18.775Z,612.00
2023-05-10T09:51:18.615Z,614.00
2023-05-10T09:52:18.686Z,615.00
2023-05-10T09:53:18.613Z,611.00
2023-05-10T09:54:18.624Z,607.00
2023-05-10T09:55:18.720Z,604.00
2023-05-10T09:56:18.594Z,600.00
2023-05-10T09:57:18.612Z,595.00
2023-05-10T09:58:18.607Z,592.00
2023-05-10T09:59:18.581Z,592.00
2023-05-10T10:00:18.630Z,590.00
2023-05-10T10:01:18.710Z,587.00
2023-05-10T10:02:18.575Z,585.00
2023-05-10T10:03:18.555Z,581.00
2023-05-10T10:04:18.556Z,575.00
2023-05-10T10:05:18.859Z,572.00
2023-05-10T10:06:29.169Z,569.00
2023-05-10T10:07:19.519Z,569.00
2023-05-10T10:08:18.524Z,566.00
2023-05-10T10:09:18.508Z,563.00
2023-05-10T10:10:19.196Z,562.00
2023-05-10T10:11:18.702Z,556.00
2023-05-10T10:12:18.505Z,553.00
2023-05-10T10:13:19.490Z,552.00
2023-05-10T10:14:18.470Z,550.00
2023-05-10T10:15:18.686Z,548.00
2023-05-10T10:16:18.706Z,546.00
2023-05-10T10:17:18.452Z,543.00
2023-05-10T10:18:18.480Z,542.00
2023-05-10T10:19:18.409Z,538.00
2023-05-10T10:20:18.641Z,538.00
2023-05-10T10:21:18.716Z,536.00
2023-05-10T10:22:18.417Z,536.00
2023-05-10T10:23:18.412Z,536.00
2023-05-10T10:24:18.419Z,533.00
2023-05-10T10:25:18.699Z,532.00
2023-05-10T10:26:18.724Z,529.00
2023-05-10T10:27:18.403Z,526.00
2023-05-10T10:28:18.412Z,525.00
2023-05-10T10:29:18.408Z,522.00
2023-05-10T10:30:18.443Z,522.00
2023-05-10T10:31:18.584Z,520.00
2023-05-10T10:32:18.503Z,519.00
2023-05-10T10:33:27.982Z,517.00
2023-05-10T10:34:19.540Z,517.00
2023-05-10T10:35:18.716Z,513.00
2023-05-10T10:36:18.718Z,511.00
2023-05-10T10:37:18.545Z,511.00
2023-05-10T10:38:20.186Z,509.00
2023-05-10T10:39:18.525Z,508.00
2023-05-10T10:40:18.487Z,509.00
2023-05-10T10:41:18.491Z,510.00
2023-05-10T10:42:18.539Z,511.00
2023-05-10T10:43:18.472Z,508.00
2023-05-10T10:44:18.487Z,512.00
2023-05-10T10:45:18.857Z,512.00
2023-05-10T10:46:18.881Z,513.00
2023-05-10T10:47:18.450Z,513.00
2023-05-10T10:48:18.466Z,514.00
2023-05-10T10:49:18.502Z,516.00
2023-05-10T10:50:18.522Z,515.00
2023-05-10T10:51:18.573Z,513.00
2023-05-10T10:52:18.626Z,511.00
2023-05-10T10:53:18.683Z,507.00
2023-05-10T10:54:18.654Z,504.00
2023-05-10T10:55:19.109Z,502.00
2023-05-10T10:56:18.722Z,499.00
2023-05-10T10:57:18.778Z,497.00
2023-05-10T10:58:18.823Z,501.00
2023-05-10T10:59:19.806Z,504.00
2023-05-10T11:00:18.791Z,543.00
2023-05-10T11:01:18.895Z,545.00
2023-05-10T11:02:18.854Z,575.00
2023-05-10T11:03:18.782Z,615.00
2023-05-10T11:04:18.804Z,655.00
2023-05-10T11:05:18.751Z,630.00
2023-05-10T11:06:18.741Z,689.00
2023-05-10T11:07:18.720Z,770.00
2023-05-10T11:08:18.762Z,721.00
2023-05-10T11:09:18.760Z,755.00
2023-05-10T11:10:18.734Z,771.00
2023-05-10T11:11:18.716Z,660.00
2023-05-10T11:12:18.707Z,578.00
2023-05-10T11:13:18.718Z,582.00
2023-05-10T11:14:18.687Z,574.00
2023-05-10T11:15:18.734Z,558.00
2023-05-10T11:16:18.781Z,561.00
2023-05-10T11:17:18.684Z,555.00
2023-05-10T11:18:18.802Z,547.00
2023-05-10T11:19:18.814Z,546.00
2023-05-10T11:20:19.156Z,1126.00
2023-05-10T11:21:18.866Z,937.00
2023-05-10T11:22:18.908Z,555.00
2023-05-10T11:23:18.934Z,531.00
2023-05-10T11:24:18.977Z,524.00
2023-05-10T11:25:19.073Z,528.00
2023-05-10T11:26:19.383Z,530.00
2023-05-10T11:27:19.246Z,531.00
2023-05-10T11:28:19.307Z,528.00
2023-05-10T11:29:19.256Z,517.00
2023-05-10T11:30:19.499Z,509.00
2023-05-10T11:31:19.830Z,500.00
2023-05-10T11:32:19.367Z,494.00
2023-05-10T11:33:19.557Z,493.00
2023-05-10T11:34:19.390Z,497.00
2023-05-10T11:35:19.419Z,500.00
2023-05-10T11:36:19.786Z,501.00
2023-05-10T11:37:19.451Z,506.00
2023-05-10T11:38:19.536Z,514.00
2023-05-10T11:39:19.562Z,515.00
2023-05-10T11:40:19.679Z,518.00
2023-05-10T11:41:19.762Z,520.00
2023-05-10T11:42:19.680Z,522.00
2023-05-10T11:43:19.714Z,524.00
2023-05-10T11:44:19.777Z,525.00
2023-05-10T11:45:19.839Z,528.00
2023-05-10T11:46:19.897Z,530.00
2023-05-10T11:47:19.923Z,529.00
2023-05-10T11:48:19.953Z,531.00
2023-05-10T11:49:20.002Z,534.00
2023-05-10T11:50:20.206Z,536.00
2023-05-10T11:51:20.243Z,538.00
2023-05-10T11:52:20.092Z,537.00
2023-05-10T11:53:20.154Z,540.00
2023-05-10T11:54:20.157Z,537.00
2023-05-10T11:55:20.195Z,536.00
2023-05-10T11:56:20.182Z,535.00
2023-05-10T11:57:20.307Z,535.00
2023-05-10T11:58:20.260Z,533.00
2023-05-10T11:59:20.321Z,533.00
2023-05-10T12:00:20.473Z,533.00
2023-05-10T12:01:20.368Z,531.00
2023-05-10T12:02:20.409Z,530.00
2023-05-10T12:03:20.502Z,532.00
2023-05-10T12:04:20.544Z,532.00
2023-05-10T12:05:20.519Z,532.00
2023-05-10T12:06:20.591Z,533.00
2023-05-10T12:07:20.556Z,533.00
2023-05-10T12:08:20.555Z,531.00
2023-05-10T12:09:31.409Z,531.00
2023-05-10T12:10:21.651Z,530.00
2023-05-10T12:11:20.729Z,530.00
2023-05-10T12:12:20.787Z,530.00
2023-05-10T12:13:20.801Z,532.00
2023-05-10T12:14:20.826Z,531.00
2023-05-10T12:15:20.706Z,531.00
2023-05-10T12:16:20.813Z,536.00
2023-05-10T12:17:20.543Z,537.00
2023-05-10T12:18:20.590Z,537.00
2023-05-10T12:19:20.522Z,538.00
2023-05-10T12:20:20.714Z,543.00
2023-05-10T12:21:20.837Z,540.00
2023-05-10T12:22:20.615Z,527.00
2023-05-10T12:23:20.614Z,508.00
2023-05-10T12:24:20.695Z,494.00
2023-05-10T12:25:20.793Z,487.00
2023-05-10T12:26:21.261Z,481.00